Latest Weather Observations for Lake Grace

IDW60801

Issued at 10:33 am WST Friday 1 July 2016 (issued every 30 minutes, with the page automatically refreshed every 10 minutes)

About weather observations | Map of weather stations | Latest weather observations for WA | Other Formats
Station Details ID: 010911 Name: LAKE GRACE Lat: -33.10 Lon: 118.46 Height: 286.0 m
Data from the previous 72 hours. | See also: Recent months at Lake Grace
Date/Time
WST
Temp
°C
App
Temp
°C
Dew
Point
°C
Rel
Hum
%
Delta-T
°C
Wind Press
QNH
hPa
Press
MSL
hPa
Rain since
9am
mm
Dir  Spd
km/h
Gust
km/h
Spd
kts
Gust
kts
01/10:30am 11.9 9.4 6.4 69 2.6 NNW 9 13 5 7 1029.2 1029.5 0.0
01/10:00am 10.9 9.0 6.8 76 2.0 N 6 7 3 4 1029.3 1029.6 0.0
01/09:30am 9.7 8.6 7.0 83 1.3 N 2 7 1 4 1029.3 1029.6 0.0
01/09:00am 8.6 8.1 7.7 94 0.4 CALM 0 0 0 0 1029.1 1029.3 0.0
01/08:30am 6.4 5.4 5.8 96 0.3 CALM 0 0 0 0 1028.8 1029.0 0.0
01/08:00am 3.8 1.2 3.2 96 0.2 NNE 6 6 3 3 1028.5 1028.7 0.0
01/07:30am 1.6 -1.4 0.9 95 0.3 NNE 6 7 3 4 1028.4 1028.5 0.0
01/07:00am 2.4 0.7 1.7 95 0.3 CALM 0 7 0 4 1028.3 1028.4 0.0
01/06:30am 3.5 2.0 2.8 95 0.3 CALM 0 0 0 0 1028.0 1028.1 0.0
01/06:00am 3.9 2.4 3.0 94 0.4 CALM 0 0 0 0 1027.6 1027.7 0.0
01/05:30am 3.8 1.0 2.9 94 0.4 NNE 7 9 4 5 1027.4 1027.5 0.0
01/05:00am 4.1 1.3 3.1 93 0.4 N 7 9 4 5 1027.3 1027.4 0.0
01/04:30am 4.6 1.9 3.6 93 0.4 NNE 7 7 4 4 1027.2 1027.3 0.0
01/04:00am 4.6 1.9 3.6 93 0.4 NNE 7 9 4 5 1027.1 1027.2 0.0
01/03:30am 4.3 1.7 3.1 92 0.5 NNE 6 6 3 3 1027.1 1027.2 0.0
01/03:00am 4.0 1.3 2.7 91 0.5 N 6 7 3 4 1027.1 1027.2 0.0
01/02:30am 4.8 2.3 3.5 91 0.5 N 6 9 3 5 1027.1 1027.2 0.0
01/02:00am 5.2 2.7 3.7 90 0.6 NNE 6 7 3 4 1027.1 1027.2 0.0
01/01:30am 5.4 2.9 3.9 90 0.6 N 6 7 3 4 1027.1 1027.2 0.0
01/01:00am 5.7 3.3 4.2 90 0.6 N 6 7 3 4 1027.2 1027.3 0.0
01/12:30am 6.5 4.2 4.8 89 0.8 N 6 7 3 4 1027.3 1027.4 0.0
01/12:00am 6.4 4.1 4.7 89 0.7 NNE 6 7 3 4 1027.3 1027.4 0.0
 
Date/Time
WST
Temp
°C
App
Temp
°C
Dew
Point
°C
Rel
Hum
%
Delta-T
°C
Wind Press
QNH
hPa
Press
MSL
hPa
Rain since
9am
mm
Dir  Spd
km/h
Gust
km/h
Spd
kts
Gust
kts
30/11:30pm 6.7 4.4 4.7 87 0.9 N 6 7 3 4 1027.4 1027.5 0.0
30/11:00pm 8.7 7.8 6.2 84 1.2 CALM 0 0 0 0 1027.3 1027.4 0.0
30/10:30pm 9.6 7.7 6.7 82 1.4 NNE 6 9 3 5 1027.4 1027.5 0.0
30/10:00pm 10.2 9.6 7.3 82 1.4 CALM 0 0 0 0 1027.6 1027.7 0.0
30/09:30pm 10.8 9.6 8.0 83 1.4 N 4 7 2 4 1027.7 1027.9 0.0
30/09:00pm 11.1 9.5 8.1 82 1.5 N 6 7 3 4 1027.5 1027.6 0.0
30/08:30pm 11.4 10.9 7.7 78 1.8 CALM 0 0 0 0 1027.3 1027.4 0.0
30/08:00pm 11.9 11.3 7.4 74 2.2 CALM 0 0 0 0 1027.0 1027.1 0.0
30/07:30pm 12.2 11.6 7.3 72 2.4 CALM 0 0 0 0 1027.0 1027.1 0.0
30/07:00pm 12.7 10.9 7.0 68 2.8 WNW 6 9 3 5 1026.6 1026.7 0.0
30/06:30pm 12.9 11.4 6.7 66 3.0 SW 4 7 2 4 1026.3 1026.4 0.0
30/06:00pm 13.3 11.1 6.4 63 3.3 WSW 7 9 4 5 1025.9 1026.0 0.0
30/05:30pm 13.3 10.8 6.4 63 3.3 WSW 9 13 5 7 1025.5 1025.6 0.0
30/05:00pm 13.5 11.0 6.6 63 3.4 WSW 9 13 5 7 1025.1 1025.2 0.0
30/04:30pm 13.8 11.4 6.9 63 3.4 WSW 9 13 5 7 1024.9 1025.0 0.0
30/04:00pm 13.9 11.8 6.7 62 3.5 SW 7 11 4 6 1024.8 1024.8 0.0
30/03:30pm 14.1 10.8 6.2 59 3.8 WSW 13 17 7 9 1024.8 1024.8 0.0
30/03:00pm 14.9 11.9 6.2 56 4.2 WSW 11 17 6 9 1024.4 1024.4 0.0
30/02:30pm 14.5 11.2 6.3 58 4.0 WSW 13 17 7 9 1024.1 1024.2 0.0
30/02:00pm 13.9 11.0 6.5 61 3.6 SW 11 17 6 9 1024.4 1024.4 0.0
30/01:30pm 14.0 11.1 6.4 60 3.7 SW 11 19 6 10 1024.8 1024.8 0.0
30/01:00pm 14.2 10.9 6.3 59 3.8 WSW 13 19 7 10 1025.0 1025.1 0.0
30/12:30pm 14.3 11.3 6.2 58 3.9 SW 11 19 6 10 1025.2 1025.3 0.0
30/12:00pm 14.2 10.5 6.1 58 3.9 SW 15 22 8 12 1025.7 1025.8 0.0
30/11:30am 13.6 10.0 6.7 63 3.4 WSW 15 20 8 11 1026.0 1026.1 0.0
30/11:00am 13.6 11.5 8.4 71 2.6 WNW 9 13 5 7 1026.4 1026.5 0.0
30/10:30am 11.9 10.5 9.5 85 1.2 NW 7 9 4 5 1026.6 1026.7 0.0
30/10:00am 10.5 9.2 9.9 96 0.3 NW 7 11 4 6 1026.7 1026.8 0.0
30/09:30am 9.0 7.6 8.9 99 0.0 NNW 6 7 3 4 1026.8 1026.9 0.0
30/09:00am 7.2 5.2 7.1 99 0.0 N 7 11 4 6 1026.5 1026.6 0.2
30/08:30am 6.3 4.3 6.2 99 0.0 N 6 7 3 4 1026.2 1026.3 0.2
30/08:00am 3.9 1.4 3.8 99 0.0 N 6 9 3 5 1026.0 1026.1 0.2
30/07:30am 3.1 0.5 3.0 99 0.0 NNE 6 7 3 4 1025.8 1025.9 0.2
30/07:00am 3.1 0.3 3.0 99 0.0 N 7 11 4 6 1025.5 1025.6 0.0
30/06:30am 3.3 0.5 3.2 99 0.0 N 7 11 4 6 1025.3 1025.4 0.0
30/06:00am 2.6 -0.1 2.5 99 0.0 NNE 6 7 3 4 1025.0 1025.1 0.0
30/05:30am 3.2 0.0 3.1 99 0.0 N 9 13 5 7 1024.8 1024.8 0.0
30/05:00am 3.0 0.2 2.9 99 0.0 NNE 7 9 4 5 1024.9 1025.0 0.0
30/04:30am 3.0 1.5 2.9 99 0.0 CALM 0 0 0 0 1024.6 1024.6 0.0
30/04:00am 3.5 2.1 3.4 99 0.0 CALM 0 0 0 0 1024.5 1024.5 0.0
30/03:30am 3.8 2.4 3.5 98 0.1 CALM 0 0 0 0 1024.5 1024.5 0.0
30/03:00am 4.4 2.0 4.3 99 0.0 NNE 6 7 3 4 1024.5 1024.5 0.0
30/02:30am 4.4 2.0 4.1 98 0.1 N 6 9 3 5 1024.4 1024.4 0.0
30/02:00am 3.7 0.6 3.4 98 0.1 N 9 11 5 6 1024.3 1024.3 0.0
30/01:30am 4.4 3.1 4.1 98 0.1 CALM 0 0 0 0 1024.0 1024.1 0.0
30/01:00am 4.6 3.3 4.2 97 0.2 CALM 0 0 0 0 1024.1 1024.2 0.0
30/12:30am 5.3 4.2 4.9 97 0.2 CALM 0 0 0 0 1023.9 1024.0 0.0
30/12:00am 5.9 4.9 5.5 97 0.2 CALM 0 0 0 0 1023.8 1023.9 0.0
 
Date/Time
WST
Temp
°C
App
Temp
°C
Dew
Point
°C
Rel
Hum
%
Delta-T
°C
Wind Press
QNH
hPa
Press
MSL
hPa
Rain since
9am
mm
Dir  Spd
km/h
Gust
km/h
Spd
kts
Gust
kts
29/11:30pm 6.7 5.9 6.3 97 0.2 CALM 0 0 0 0 1023.8 1023.9 0.0
29/11:00pm 6.9 6.1 6.5 97 0.2 CALM 0 0 0 0 1023.6 1023.7 0.0
29/10:30pm 6.0 5.0 5.4 96 0.3 CALM 0 0 0 0 1023.4 1023.5 0.0
29/10:00pm 6.3 5.3 5.7 96 0.3 CALM 0 0 0 0 1023.2 1023.3 0.0
29/09:30pm 5.8 4.7 5.1 95 0.3 CALM 0 0 0 0 1023.0 1023.1 0.0
29/09:00pm 6.7 5.8 6.0 95 0.3 CALM 0 0 0 0 1022.9 1023.0 0.0
29/08:30pm 7.2 6.3 6.1 93 0.5 CALM 0 0 0 0 1022.5 1022.6 0.0
29/08:00pm 7.9 7.1 6.7 92 0.6 CALM 0 0 0 0 1022.2 1022.3 0.0
29/07:30pm 9.5 9.0 7.9 90 0.8 CALM 0 0 0 0 1021.8 1021.8 0.0
29/07:00pm 10.4 9.3 8.5 88 0.9 SSW 4 7 2 4 1021.4 1021.4 0.0
29/06:30pm 11.2 9.8 8.8 85 1.2 SSW 6 9 3 5 1021.0 1021.0 0.0
29/06:00pm 12.5 9.7 8.6 77 2.0 SW 13 19 7 10 1020.7 1020.7 0.0
29/05:30pm 13.2 9.9 8.1 71 2.6 WSW 15 20 8 11 1020.0 1020.1 0.0
29/05:00pm 13.8 11.2 7.6 66 3.1 WSW 11 17 6 9 1019.4 1019.5 0.0
29/04:30pm 14.8 11.7 7.1 60 3.8 WSW 13 17 7 9 1019.0 1019.1 0.0
29/04:00pm 15.1 11.2 6.9 58 4.1 SW 17 30 9 16 1018.7 1018.7 0.0
29/03:30pm 15.4 11.6 7.4 59 4.0 SW 17 28 9 15 1018.2 1018.2 0.0
29/03:00pm 15.1 10.9 7.4 60 3.9 WSW 19 26 10 14 1017.8 1017.8 0.0
29/02:30pm 15.5 11.2 7.8 60 3.9 WSW 20 32 11 17 1017.6 1017.6 0.0
29/02:00pm 15.5 11.2 8.0 61 3.8 WSW 20 32 11 17 1017.3 1017.3 0.0
29/01:30pm 15.5 10.9 8.0 61 3.8 WSW 22 35 12 19 1017.1 1017.1 0.0
29/01:00pm 15.2 11.4 8.9 66 3.3 WSW 19 26 10 14 1017.0 1017.0 0.0
29/12:30pm 14.6 9.8 9.0 69 2.9 WSW 24 33 13 18 1017.1 1017.1 0.0
29/12:00pm 15.2 11.6 10.0 71 2.7 WSW 19 28 10 15 1017.0 1017.0 0.0
29/11:30am 14.7 11.5 9.9 73 2.5 WSW 17 26 9 14 1017.1 1017.1 0.0
29/11:00am 14.5 11.0 10.1 75 2.3 W 19 28 10 15 1017.1 1017.1 0.0
29/10:30am 13.8 10.4 10.6 81 1.7 W 19 30 10 16 1017.2 1017.2 0.0
29/10:00am 13.7 11.3 12.8 94 0.5 WNW 17 24 9 13 1017.1 1017.1 0.0
29/09:30am 12.2 10.4 12.0 99 0.1 NW 13 17 7 9 1016.6 1016.7 0.0
29/09:00am 10.7 9.2 10.5 99 0.1 NNW 9 15 5 8 1016.4 1016.5 2.8
29/08:30am 9.4 7.2 9.3 99 0.1 NNW 11 15 6 8 1016.2 1016.3 2.8
29/08:00am 8.8 7.2 8.7 99 0.0 NNW 7 11 4 6 1015.9 1016.0 2.8
29/07:30am 9.0 6.7 8.9 99 0.0 NW 11 17 6 9 1015.5 1015.5 2.8
29/07:00am 9.6 8.1 9.3 98 0.2 W 7 11 4 6 1015.3 1015.3 2.8
29/06:30am 10.0 8.6 9.7 98 0.2 WNW 7 9 4 5 1014.8 1014.8 2.8
29/06:00am 10.2 9.1 9.9 98 0.2 WNW 6 13 3 7 1014.4 1014.4 2.8
29/05:30am 9.9 8.7 9.4 97 0.3 NW 6 9 3 5 1014.0 1014.0 2.8
29/05:00am 10.9 9.7 10.4 97 0.3 W 7 13 4 7 1013.7 1013.7 2.8
29/04:30am 11.3 9.9 11.0 98 0.2 WNW 9 15 5 8 1013.5 1013.5 2.8
29/04:00am 11.7 10.1 11.4 98 0.2 NW 11 19 6 10 1013.3 1013.3 2.8
29/03:30am 12.0 10.4 11.7 98 0.2 NW 11 15 6 8 1013.2 1013.2 2.8
29/03:00am 12.0 10.8 11.7 98 0.2 NW 9 13 5 7 1013.2 1013.2 2.8
29/02:30am 12.0 10.8 11.7 98 0.2 NW 9 13 5 7 1012.8 1012.8 2.8
29/02:00am 12.1 10.6 11.8 98 0.2 NW 11 13 6 7 1012.8 1012.8 2.8
29/01:30am 12.3 10.5 12.0 98 0.2 NW 13 17 7 9 1012.3 1012.3 2.8
29/01:00am 12.4 10.6 12.1 98 0.2 WNW 13 20 7 11 1012.6 1012.6 2.8
29/12:30am 12.5 11.1 12.2 98 0.2 NW 11 17 6 9 1012.7 1012.7 2.8
29/12:00am 12.5 10.7 12.2 98 0.2 NW 13 20 7 11 1012.6 1012.6 2.8
 
Date/Time
WST
Temp
°C
App
Temp
°C
Dew
Point
°C
Rel
Hum
%
Delta-T
°C
Wind Press
QNH
hPa
Press
MSL
hPa
Rain since
9am
mm
Dir  Spd
km/h
Gust
km/h
Spd
kts
Gust
kts
28/11:30pm 12.3 10.8 12.0 98 0.2 NNW 11 15 6 8 1012.7 1012.7 2.8
28/11:00pm 12.2 11.1 11.9 98 0.2 NW 9 13 5 7 1012.6 1012.6 2.6
28/10:30pm 12.3 10.1 12.0 98 0.2 NNW 15 20 8 11 1012.7 1012.7 2.6
28/10:00pm 12.2 11.0 11.7 97 0.3 NNW 9 11 5 6 1012.7 1012.7 2.6
28/09:30pm 12.0 11.1 11.5 97 0.3 NNW 7 9 4 5 1012.6 1012.6 2.6
28/09:00pm 12.0 10.7 11.4 96 0.3 NNW 9 15 5 8 1012.5 1012.5 2.6
28/08:30pm 12.4 10.1 11.8 96 0.3 NNW 15 24 8 13 1012.8 1012.8 2.6
28/08:00pm 12.5 9.9 11.9 96 0.3 N 17 22 9 12 1012.3 1012.3 2.6
28/07:30pm 12.0 11.1 11.4 96 0.3 NNW 7 9 4 5 1012.5 1012.5 2.6
28/07:00pm 12.3 10.4 11.7 96 0.3 NNW 13 17 7 9 1012.2 1012.2 2.6
28/06:30pm 12.3 10.0 11.7 96 0.3 N 15 19 8 10 1012.0 1012.0 2.6
28/06:00pm 12.6 10.8 12.0 96 0.3 N 13 19 7 10 1011.9 1011.9 2.6
28/05:30pm 12.7 10.4 11.9 95 0.4 N 15 19 8 10 1011.5 1011.5 2.6
28/05:00pm 12.9 11.8 12.1 95 0.4 NNE 9 13 5 7 1011.3 1011.3 2.6
28/04:30pm 13.1 10.9 12.2 94 0.5 N 15 20 8 11 1011.6 1011.6 2.2
28/04:00pm 13.5 11.3 12.1 91 0.8 NW 15 22 8 12 1011.9 1011.9 1.4
28/03:30pm 14.0 13.0 12.4 90 0.9 NW 9 17 5 9 1011.5 1011.5 1.0
28/03:00pm 13.8 12.3 12.0 89 1.0 WNW 11 15 6 8 1011.6 1011.6 1.0
28/02:30pm 13.5 10.7 11.4 87 1.1 WNW 17 28 9 15 1011.7 1011.7 0.8
28/02:00pm 15.4 11.7 10.0 70 2.9 NW 20 30 11 16 1011.4 1011.4 0.0
28/01:30pm 15.9 12.0 9.6 66 3.3 NW 20 30 11 16 1011.2 1011.2 0.0
28/01:00pm 15.8 11.8 9.2 65 3.5 NW 20 33 11 18 1011.5 1011.5 0.0
28/12:30pm 15.4 11.9 8.9 65 3.4 NNW 17 28 9 15 1011.8 1011.8 0.0
28/12:00pm 14.8 9.8 8.1 64 3.4 NW 24 35 13 19 1012.6 1012.6 0.0
28/11:30am 15.3 11.1 8.1 62 3.7 NNW 20 30 11 16 1012.9 1013.0 0.0
28/11:00am 14.1 9.7 7.6 65 3.3 NNW 20 28 11 15 1013.4 1013.4 0.0

Other Formats:

Comma delimited format used in spreadsheet applications
http://www.bom.gov.au/fwo/IDW60801/IDW60801.95637.axf

JavaScript Object Notation format (JSON) in row-major order
http://www.bom.gov.au/fwo/IDW60801/IDW60801.95637.json